sensor_id;sensor_type;location;lat;lon;timestamp;pressure;altitude;pressure_sealevel;temperature;humidity
63739;BME280;68816;45.558;10.070;2023-05-23T00:00:27;99659.94;;;20.67;61.73
63739;BME280;68816;45.558;10.070;2023-05-23T00:02:52;99670.25;;;20.72;62.49
63739;BME280;68816;45.558;10.070;2023-05-23T00:05:21;99649.41;;;20.59;62.15
63739;BME280;68816;45.558;10.070;2023-05-23T00:07:47;99654.41;;;20.62;62.73
63739;BME280;68816;45.558;10.070;2023-05-23T00:10:13;99664.72;;;20.67;62.43
63739;BME280;68816;45.558;10.070;2023-05-23T00:12:39;99658.97;;;20.58;62.11
63739;BME280;68816;45.558;10.070;2023-05-23T00:15:07;99659.69;;;20.50;62.56
63739;BME280;68816;45.558;10.070;2023-05-23T00:17:33;99663.47;;;20.59;63.27
63739;BME280;68816;45.558;10.070;2023-05-23T00:20:02;99664.59;;;20.58;63.00
63739;BME280;68816;45.558;10.070;2023-05-23T00:22:28;99664.59;;;20.58;63.71
63739;BME280;68816;45.558;10.070;2023-05-23T00:24:54;99666.06;;;20.42;63.64
63739;BME280;68816;45.558;10.070;2023-05-23T00:27:22;99661.03;;;20.39;63.83
63739;BME280;68816;45.558;10.070;2023-05-23T00:29:48;99659.81;;;20.45;63.89
63739;BME280;68816;45.558;10.070;2023-05-23T00:32:14;99658.16;;;20.44;64.21
63739;BME280;68816;45.558;10.070;2023-05-23T00:34:41;99658.22;;;20.39;64.34
63739;BME280;68816;45.558;10.070;2023-05-23T00:37:10;99641.31;;;20.44;63.01
63739;BME280;68816;45.558;10.070;2023-05-23T00:39:36;99653.16;;;20.41;63.29
63739;BME280;68816;45.558;10.070;2023-05-23T00:42:03;99654.56;;;20.25;64.25
63739;BME280;68816;45.558;10.070;2023-05-23T00:44:32;99648.72;;;20.21;63.50
63739;BME280;68816;45.558;10.070;2023-05-23T00:46:57;99649.53;;;20.22;63.98
63739;BME280;68816;45.558;10.070;2023-05-23T00:49:24;99634.56;;;20.13;64.04
63739;BME280;68816;45.558;10.070;2023-05-23T00:51:52;99649.78;;;20.25;63.80
63739;BME280;68816;45.558;10.070;2023-05-23T00:54:23;99636.00;;;20.10;64.35
63739;BME280;68816;45.558;10.070;2023-05-23T00:56:52;99626.34;;;20.16;64.12
63739;BME280;68816;45.558;10.070;2023-05-23T00:59:20;99641.31;;;20.12;64.51
63739;BME280;68816;45.558;10.070;2023-05-23T01:01:50;99643.19;;;20.02;64.90
63739;BME280;68816;45.558;10.070;2023-05-23T01:04:17;99640.59;;;20.06;64.98
63739;BME280;68816;45.558;10.070;2023-05-23T01:06:44;99625.06;;;19.95;64.62
63739;BME280;68816;45.558;10.070;2023-05-23T01:09:12;99593.75;;;19.74;66.49
63739;BME280;68816;45.558;10.070;2023-05-23T01:11:46;99643.50;;;20.01;65.21
63739;BME280;68816;45.558;10.070;2023-05-23T01:14:23;99637.19;;;20.09;64.90
63739;BME280;68816;45.558;10.070;2023-05-23T01:16:56;99632.47;;;20.04;65.12
63739;BME280;68816;45.558;10.070;2023-05-23T01:19:55;99645.25;;;19.97;65.20
63739;BME280;68816;45.558;10.070;2023-05-23T01:24:56;99639.81;;;19.87;65.29
63739;BME280;68816;45.558;10.070;2023-05-23T01:28:00;99642.41;;;19.83;65.56
63739;BME280;68816;45.558;10.070;2023-05-23T01:30:31;99639.59;;;19.83;65.15
63739;BME280;68816;45.558;10.070;2023-05-23T01:33:04;99637.34;;;19.66;65.52
63739;BME280;68816;45.558;10.070;2023-05-23T01:35:32;99639.25;;;19.71;65.57
63739;BME280;68816;45.558;10.070;2023-05-23T01:37:58;99635.22;;;19.77;64.88
63739;BME280;68816;45.558;10.070;2023-05-23T01:40:24;99633.81;;;19.61;64.92
63739;BME280;68816;45.558;10.070;2023-05-23T01:42:52;99621.09;;;19.50;65.29
63739;BME280;68816;45.558;10.070;2023-05-23T01:45:24;99626.69;;;19.50;65.75
63739;BME280;68816;45.558;10.070;2023-05-23T01:47:54;99626.91;;;19.53;65.34
63739;BME280;68816;45.558;10.070;2023-05-23T01:50:21;99625.47;;;19.56;65.81
63739;BME280;68816;45.558;10.070;2023-05-23T01:52:50;99616.91;;;19.47;65.51
63739;BME280;68816;45.558;10.070;2023-05-23T01:55:19;99612.72;;;19.45;65.17
63739;BME280;68816;45.558;10.070;2023-05-23T01:57:49;99629.09;;;19.38;65.71
63739;BME280;68816;45.558;10.070;2023-05-23T02:00:15;99585.00;;;19.24;65.50
63739;BME280;68816;45.558;10.070;2023-05-23T02:02:42;99624.84;;;19.59;64.88
63739;BME280;68816;45.558;10.070;2023-05-23T02:05:11;99629.19;;;19.51;64.66
63739;BME280;68816;45.558;10.070;2023-05-23T02:07:36;99628.72;;;19.44;66.43
63739;BME280;68816;45.558;10.070;2023-05-23T02:10:03;99634.34;;;19.44;65.77
63739;BME280;68816;45.558;10.070;2023-05-23T02:12:29;99629.56;;;19.45;66.08
63739;BME280;68816;45.558;10.070;2023-05-23T02:14:56;99633.44;;;19.49;66.30
63739;BME280;68816;45.558;10.070;2023-05-23T02:17:21;99640.09;;;19.53;65.82
63739;BME280;68816;45.558;10.070;2023-05-23T02:19:50;99636.25;;;19.49;66.58
63739;BME280;68816;45.558;10.070;2023-05-23T02:22:16;99637.38;;;19.48;65.47
63739;BME280;68816;45.558;10.070;2023-05-23T02:24:42;99641.38;;;19.42;66.13
63739;BME280;68816;45.558;10.070;2023-05-23T02:27:10;99628.81;;;19.20;65.95
63739;BME280;68816;45.558;10.070;2023-05-23T02:29:35;99641.75;;;19.16;66.46
63739;BME280;68816;45.558;10.070;2023-05-23T02:32:01;99650.31;;;19.25;66.42
63739;BME280;68816;45.558;10.070;2023-05-23T02:34:26;99641.16;;;19.19;67.07
63739;BME280;68816;45.558;10.070;2023-05-23T02:36:52;99642.28;;;19.18;67.12
63739;BME280;68816;45.558;10.070;2023-05-23T02:39:20;99651.25;;;19.20;67.22
63739;BME280;68816;45.558;10.070;2023-05-23T02:41:46;99635.63;;;19.14;67.44
63739;BME280;68816;45.558;10.070;2023-05-23T02:44:13;99640.47;;;19.27;67.13
63739;BME280;68816;45.558;10.070;2023-05-23T02:46:40;99640.47;;;19.27;66.76
63739;BME280;68816;45.558;10.070;2023-05-23T02:49:05;99629.03;;;19.24;66.29
63739;BME280;68816;45.558;10.070;2023-05-23T02:51:32;99644.72;;;19.25;67.58
63739;BME280;68816;45.558;10.070;2023-05-23T02:53:57;99648.81;;;19.14;67.59
63739;BME280;68816;45.558;10.070;2023-05-23T02:56:25;99650.09;;;19.21;67.54
63739;BME280;68816;45.558;10.070;2023-05-23T02:58:52;99652.94;;;19.16;67.72
63739;BME280;68816;45.558;10.070;2023-05-23T03:01:18;99641.81;;;19.11;68.12
63739;BME280;68816;45.558;10.070;2023-05-23T03:03:44;99639.25;;;18.96;68.09
63739;BME280;68816;45.558;10.070;2023-05-23T03:06:10;99638.88;;;19.03;68.01
63739;BME280;68816;45.558;10.070;2023-05-23T03:08:39;99642.91;;;19.15;66.40
63739;BME280;68816;45.558;10.070;2023-05-23T03:11:06;99652.97;;;18.98;66.83
63739;BME280;68816;45.558;10.070;2023-05-23T03:13:31;99645.25;;;19.08;67.55
63739;BME280;68816;45.558;10.070;2023-05-23T03:15:57;99645.84;;;19.05;67.02
63739;BME280;68816;45.558;10.070;2023-05-23T03:18:23;99644.63;;;19.11;66.85
63739;BME280;68816;45.558;10.070;2023-05-23T03:20:49;99650.78;;;19.13;66.88
63739;BME280;68816;45.558;10.070;2023-05-23T03:23:16;99645.44;;;18.93;67.30
63739;BME280;68816;45.558;10.070;2023-05-23T03:25:42;99651.88;;;18.94;68.08
63739;BME280;68816;45.558;10.070;2023-05-23T03:28:07;99641.22;;;18.96;67.09
63739;BME280;68816;45.558;10.070;2023-05-23T03:30:33;99650.31;;;19.06;66.35
63739;BME280;68816;45.558;10.070;2023-05-23T03:33:01;99648.38;;;18.83;67.31
63739;BME280;68816;45.558;10.070;2023-05-23T03:35:33;99654.38;;;18.95;68.31
63739;BME280;68816;45.558;10.070;2023-05-23T03:37:59;99648.19;;;18.98;66.56
63739;BME280;68816;45.558;10.070;2023-05-23T03:40:26;99627.56;;;18.89;65.95
63739;BME280;68816;45.558;10.070;2023-05-23T03:43:04;99650.91;;;19.03;66.89
63739;BME280;68816;45.558;10.070;2023-05-23T03:45:31;99651.03;;;18.93;66.81
63739;BME280;68816;45.558;10.070;2023-05-23T03:47:58;99651.66;;;18.90;67.18
63739;BME280;68816;45.558;10.070;2023-05-23T03:50:24;99644.69;;;18.87;66.87
63739;BME280;68816;45.558;10.070;2023-05-23T03:52:51;99628.78;;;18.83;66.13
63739;BME280;68816;45.558;10.070;2023-05-23T03:55:20;99633.63;;;18.96;66.45
63739;BME280;68816;45.558;10.070;2023-05-23T03:57:47;99652.81;;;19.08;65.79
63739;BME280;68816;45.558;10.070;2023-05-23T04:00:14;99657.25;;;18.90;66.74
63739;BME280;68816;45.558;10.070;2023-05-23T04:02:41;99656.06;;;18.96;66.33
63739;BME280;68816;45.558;10.070;2023-05-23T04:05:08;99657.25;;;18.90;67.05
63739;BME280;68816;45.558;10.070;2023-05-23T04:07:35;99661.13;;;18.94;67.50
63739;BME280;68816;45.558;10.070;2023-05-23T04:10:11;99663.81;;;19.04;67.28
63739;BME280;68816;45.558;10.070;2023-05-23T04:12:37;99614.97;;;18.68;67.00
63739;BME280;68816;45.558;10.070;2023-05-23T04:15:06;99623.78;;;18.80;66.74
63739;BME280;68816;45.558;10.070;2023-05-23T04:17:32;99659.44;;;18.93;67.39
63739;BME280;68816;45.558;10.070;2023-05-23T04:19:58;99606.09;;;18.61;66.97
63739;BME280;68816;45.558;10.070;2023-05-23T04:22:24;99625.56;;;18.71;67.58
63739;BME280;68816;45.558;10.070;2023-05-23T04:24:49;99661.97;;;18.95;67.28
63739;BME280;68816;45.558;10.070;2023-05-23T04:27:15;99655.50;;;18.94;67.43
63739;BME280;68816;45.558;10.070;2023-05-23T04:29:41;99655.06;;;19.06;67.23
63739;BME280;68816;45.558;10.070;2023-05-23T04:32:07;99643.41;;;18.99;67.40
63739;BME280;68816;45.558;10.070;2023-05-23T04:34:32;99661.69;;;19.15;67.53
63739;BME280;68816;45.558;10.070;2023-05-23T04:36:59;99659.41;;;19.17;66.56
63739;BME280;68816;45.558;10.070;2023-05-23T04:39:26;99655.63;;;19.08;67.16
63739;BME280;68816;45.558;10.070;2023-05-23T04:41:52;99665.22;;;19.02;67.05
63739;BME280;68816;45.558;10.070;2023-05-23T04:44:20;99672.66;;;19.11;66.96
63739;BME280;68816;45.558;10.070;2023-05-23T04:46:45;99663.94;;;19.13;67.08
63739;BME280;68816;45.558;10.070;2023-05-23T04:49:12;99667.97;;;19.25;66.54
63739;BME280;68816;45.558;10.070;2023-05-23T04:51:38;99667.91;;;19.31;66.35
63739;BME280;68816;45.558;10.070;2023-05-23T04:54:04;99671.47;;;19.36;66.32
63739;BME280;68816;45.558;10.070;2023-05-23T04:56:30;99671.16;;;19.38;66.68
63739;BME280;68816;45.558;10.070;2023-05-23T04:58:56;99672.28;;;19.37;66.25
63739;BME280;68816;45.558;10.070;2023-05-23T05:01:22;99683.00;;;19.53;66.27
63739;BME280;68816;45.558;10.070;2023-05-23T05:03:50;99655.09;;;19.43;65.65
63739;BME280;68816;45.558;10.070;2023-05-23T05:06:16;99674.81;;;19.57;66.02
63739;BME280;68816;45.558;10.070;2023-05-23T05:08:42;99677.38;;;19.72;65.56
63739;BME280;68816;45.558;10.070;2023-05-23T05:11:08;99679.47;;;19.80;65.18
63739;BME280;68816;45.558;10.070;2023-05-23T05:13:34;99669.09;;;19.81;65.12
63739;BME280;68816;45.558;10.070;2023-05-23T05:16:00;99609.50;;;19.56;64.88
63739;BME280;68816;45.558;10.070;2023-05-23T05:18:26;99676.69;;;20.13;65.01
63739;BME280;68816;45.558;10.070;2023-05-23T05:20:52;99668.16;;;20.18;64.62
63739;BME280;68816;45.558;10.070;2023-05-23T05:23:18;99669.31;;;20.17;64.62
63739;BME280;68816;45.558;10.070;2023-05-23T05:25:43;99668.16;;;20.18;64.83
63739;BME280;68816;45.558;10.070;2023-05-23T05:28:10;99666.63;;;20.25;65.01
63739;BME280;68816;45.558;10.070;2023-05-23T05:30:36;99670.63;;;20.38;64.70
63739;BME280;68816;45.558;10.070;2023-05-23T05:33:03;99650.44;;;20.36;63.33
63739;BME280;68816;45.558;10.070;2023-05-23T05:35:32;99656.28;;;20.53;63.31
63739;BME280;68816;45.558;10.070;2023-05-23T05:38:00;99659.59;;;20.69;62.99
63739;BME280;68816;45.558;10.070;2023-05-23T05:40:31;99659.00;;;20.72;62.30
63739;BME280;68816;45.558;10.070;2023-05-23T05:42:57;99658.47;;;20.83;61.62
63739;BME280;68816;45.558;10.070;2023-05-23T05:45:22;99655.97;;;20.96;61.31
63739;BME280;68816;45.558;10.070;2023-05-23T05:47:51;99651.56;;;21.03;61.56
63739;BME280;68816;45.558;10.070;2023-05-23T05:50:19;99651.25;;;21.05;61.18
63739;BME280;68816;45.558;10.070;2023-05-23T05:52:50;99607.56;;;20.85;59.54
63739;BME280;68816;45.558;10.070;2023-05-23T05:55:16;99625.34;;;21.08;59.71
63739;BME280;68816;45.558;10.070;2023-05-23T05:57:43;99661.66;;;21.32;59.51
63739;BME280;68816;45.558;10.070;2023-05-23T06:00:22;99650.59;;;21.35;58.19
63739;BME280;68816;45.558;10.070;2023-05-23T06:03:16;99659.81;;;21.49;56.97
63739;BME280;68816;45.558;10.070;2023-05-23T06:06:02;99657.38;;;21.56;53.38
63739;BME280;68816;45.558;10.070;2023-05-23T06:08:28;99659.19;;;21.52;54.70
63739;BME280;68816;45.558;10.070;2023-05-23T06:10:54;99621.22;;;21.27;54.21
63739;BME280;68816;45.558;10.070;2023-05-23T06:13:22;99662.13;;;21.69;54.88
63739;BME280;68816;45.558;10.070;2023-05-23T06:15:58;99647.63;;;21.76;54.85
63739;BME280;68816;45.558;10.070;2023-05-23T06:18:24;99627.53;;;21.69;54.73
63739;BME280;68816;45.558;10.070;2023-05-23T06:20:56;99610.91;;;21.59;53.91
63739;BME280;68816;45.558;10.070;2023-05-23T06:23:30;99668.06;;;22.04;53.39
63739;BME280;68816;45.558;10.070;2023-05-23T06:25:57;99656.16;;;22.07;53.08
63739;BME280;68816;45.558;10.070;2023-05-23T06:28:23;99662.97;;;22.15;52.69
63739;BME280;68816;45.558;10.070;2023-05-23T06:30:49;99656.88;;;22.21;51.21
63739;BME280;68816;45.558;10.070;2023-05-23T06:33:15;99662.81;;;22.11;52.65
63739;BME280;68816;45.558;10.070;2023-05-23T06:35:41;99660.94;;;22.37;52.53
63739;BME280;68816;45.558;10.070;2023-05-23T06:38:08;99673.25;;;22.41;51.64
63739;BME280;68816;45.558;10.070;2023-05-23T06:40:34;99674.09;;;22.42;52.29
63739;BME280;68816;45.558;10.070;2023-05-23T06:43:01;99670.16;;;22.51;50.06
63739;BME280;68816;45.558;10.070;2023-05-23T06:45:28;99669.53;;;22.63;49.52
63739;BME280;68816;45.558;10.070;2023-05-23T06:47:53;99662.41;;;22.66;49.29
63739;BME280;68816;45.558;10.070;2023-05-23T06:50:20;99618.06;;;22.40;50.45
63739;BME280;68816;45.558;10.070;2023-05-23T06:52:46;99667.97;;;22.79;51.36
63739;BME280;68816;45.558;10.070;2023-05-23T06:55:12;99671.47;;;22.85;50.78
63739;BME280;68816;45.558;10.070;2023-05-23T06:57:42;99662.84;;;22.90;50.67
63739;BME280;68816;45.558;10.070;2023-05-23T07:00:13;99619.63;;;22.64;49.54
63739;BME280;68816;45.558;10.070;2023-05-23T07:02:51;99637.31;;;22.95;49.54
63739;BME280;68816;45.558;10.070;2023-05-23T07:05:17;99655.09;;;23.04;50.06
63739;BME280;68816;45.558;10.070;2023-05-23T07:07:43;99654.47;;;23.16;48.72
63739;BME280;68816;45.558;10.070;2023-05-23T07:10:09;99651.50;;;23.29;50.13
63739;BME280;68816;45.558;10.070;2023-05-23T07:12:34;99657.31;;;23.42;49.30
63739;BME280;68816;45.558;10.070;2023-05-23T07:15:00;99650.03;;;23.41;49.29
63739;BME280;68816;45.558;10.070;2023-05-23T07:17:26;99646.84;;;23.42;49.79
63739;BME280;68816;45.558;10.070;2023-05-23T07:23:05;99619.63;;;23.38;49.55
63739;BME280;68816;45.558;10.070;2023-05-23T07:26:06;99647.88;;;23.72;48.97
63739;BME280;68816;45.558;10.070;2023-05-23T07:29:06;99635.59;;;23.68;50.45
63739;BME280;68816;45.558;10.070;2023-05-23T07:31:35;99627.78;;;23.65;50.32
63739;BME280;68816;45.558;10.070;2023-05-23T07:34:00;99648.38;;;23.91;49.69
63739;BME280;68816;45.558;10.070;2023-05-23T07:36:25;99654.03;;;23.91;49.68
63739;BME280;68816;45.558;10.070;2023-05-23T07:38:51;99653.00;;;23.96;49.73
63739;BME280;68816;45.558;10.070;2023-05-23T07:41:18;99646.34;;;24.00;50.41
63739;BME280;68816;45.558;10.070;2023-05-23T07:44:08;99645.50;;;24.08;49.35
63739;BME280;68816;45.558;10.070;2023-05-23T07:47:07;99612.44;;;24.00;50.67
63739;BME280;68816;45.558;10.070;2023-05-23T07:49:54;99622.09;;;24.08;49.45
63739;BME280;68816;45.558;10.070;2023-05-23T07:52:19;99632.72;;;24.20;48.52
63739;BME280;68816;45.558;10.070;2023-05-23T07:54:48;99620.59;;;24.19;47.88
63739;BME280;68816;45.558;10.070;2023-05-23T07:57:17;99624.38;;;24.23;46.81
63739;BME280;68816;45.558;10.070;2023-05-23T07:59:47;99637.34;;;24.33;47.44
63739;BME280;68816;45.558;10.070;2023-05-23T08:02:18;99645.25;;;24.48;46.63
63739;BME280;68816;45.558;10.070;2023-05-23T08:04:43;99639.59;;;24.48;46.65
63739;BME280;68816;45.558;10.070;2023-05-23T08:07:10;99634.16;;;24.43;46.51
63739;BME280;68816;45.558;10.070;2023-05-23T08:09:36;99639.72;;;24.60;47.09
63739;BME280;68816;45.558;10.070;2023-05-23T08:12:02;99639.06;;;24.63;47.80
63739;BME280;68816;45.558;10.070;2023-05-23T08:14:28;99631.50;;;24.76;47.40
63739;BME280;68816;45.558;10.070;2023-05-23T08:16:53;99626.66;;;24.76;45.56
63739;BME280;68816;45.558;10.070;2023-05-23T08:19:19;99615.84;;;24.78;45.34
63739;BME280;68816;45.558;10.070;2023-05-23T08:21:45;99632.63;;;24.92;45.10
63739;BME280;68816;45.558;10.070;2023-05-23T08:24:11;99641.44;;;24.90;44.55
63739;BME280;68816;45.558;10.070;2023-05-23T08:26:42;99640.84;;;25.06;45.37
63739;BME280;68816;45.558;10.070;2023-05-23T08:29:07;99645.88;;;25.00;46.28
63739;BME280;68816;45.558;10.070;2023-05-23T08:31:34;99632.84;;;25.08;45.56
63739;BME280;68816;45.558;10.070;2023-05-23T08:34:00;99640.63;;;25.11;45.48
63739;BME280;68816;45.558;10.070;2023-05-23T08:36:25;99646.78;;;25.13;45.50
63739;BME280;68816;45.558;10.070;2023-05-23T08:38:51;99639.84;;;25.31;45.13
63739;BME280;68816;45.558;10.070;2023-05-23T08:41:21;99639.84;;;25.31;44.68
63739;BME280;68816;45.558;10.070;2023-05-23T08:43:47;99629.38;;;25.31;45.44
63739;BME280;68816;45.558;10.070;2023-05-23T08:46:17;99636.53;;;25.29;44.52
63739;BME280;68816;45.558;10.070;2023-05-23T08:48:49;99641.09;;;25.21;43.46
63739;BME280;68816;45.558;10.070;2023-05-23T08:51:25;99639.34;;;25.29;44.35
63739;BME280;68816;45.558;10.070;2023-05-23T08:53:57;99635.38;;;25.51;43.51
63739;BME280;68816;45.558;10.070;2023-05-23T08:56:24;99628.72;;;25.47;43.09
63739;BME280;68816;45.558;10.070;2023-05-23T08:59:02;99637.09;;;25.43;42.42
63739;BME280;68816;45.558;10.070;2023-05-23T09:01:31;99643.34;;;25.57;42.84
63739;BME280;68816;45.558;10.070;2023-05-23T09:03:58;99639.50;;;25.53;42.95
63739;BME280;68816;45.558;10.070;2023-05-23T09:06:37;99637.81;;;25.61;44.49
63739;BME280;68816;45.558;10.070;2023-05-23T09:09:13;99637.72;;;25.69;46.51
63739;BME280;68816;45.558;10.070;2023-05-23T09:11:40;99637.94;;;25.85;46.59
63739;BME280;68816;45.558;10.070;2023-05-23T09:14:14;99644.69;;;25.93;46.21
63739;BME280;68816;45.558;10.070;2023-05-23T09:16:45;99647.06;;;25.70;45.41
63739;BME280;68816;45.558;10.070;2023-05-23T09:22:35;99639.41;;;25.70;45.96
63739;BME280;68816;45.558;10.070;2023-05-23T09:25:01;99640.41;;;25.87;45.97
63739;BME280;68816;45.558;10.070;2023-05-23T09:27:28;99644.44;;;25.86;45.56
63739;BME280;68816;45.558;10.070;2023-05-23T09:29:55;99645.13;;;25.83;45.78
63739;BME280;68816;45.558;10.070;2023-05-23T09:32:23;99643.28;;;25.99;46.00
63739;BME280;68816;45.558;10.070;2023-05-23T09:35:01;99635.53;;;26.08;45.80
63739;BME280;68816;45.558;10.070;2023-05-23T09:37:36;99629.09;;;26.20;45.73
63739;BME280;68816;45.558;10.070;2023-05-23T09:40:21;99621.84;;;26.10;44.78
63739;BME280;68816;45.558;10.070;2023-05-23T09:42:47;99630.91;;;26.36;45.00
63739;BME280;68816;45.558;10.070;2023-05-23T09:45:14;99629.97;;;26.32;44.84
63739;BME280;68816;45.558;10.070;2023-05-23T09:47:51;99631.19;;;26.43;44.36
63739;BME280;68816;45.558;10.070;2023-05-23T09:50:23;99614.38;;;26.26;45.50
63739;BME280;68816;45.558;10.070;2023-05-23T09:52:49;99627.38;;;26.51;45.22
63739;BME280;68816;45.558;10.070;2023-05-23T09:55:15;99634.56;;;26.25;42.71
63739;BME280;68816;45.558;10.070;2023-05-23T09:57:42;99623.34;;;26.40;43.85
63739;BME280;68816;45.558;10.070;2023-05-23T10:00:09;99624.94;;;26.50;43.45
63739;BME280;68816;45.558;10.070;2023-05-23T10:02:53;99612.63;;;26.58;42.42
63739;BME280;68816;45.558;10.070;2023-05-23T10:05:45;99622.09;;;26.74;43.26
63739;BME280;68816;45.558;10.070;2023-05-23T10:08:35;99627.66;;;26.71;41.53
63739;BME280;68816;45.558;10.070;2023-05-23T10:13:48;99616.31;;;26.83;41.88
63739;BME280;68816;45.558;10.070;2023-05-23T10:16:39;99608.13;;;26.81;42.78
63739;BME280;68816;45.558;10.070;2023-05-23T10:19:37;99612.66;;;27.07;43.31
63739;BME280;68816;45.558;10.070;2023-05-23T10:22:12;99587.94;;;26.83;43.38
63739;BME280;68816;45.558;10.070;2023-05-23T10:24:44;99610.28;;;27.09;42.26
63739;BME280;68816;45.558;10.070;2023-05-23T10:27:11;99579.41;;;26.83;40.82
63739;BME280;68816;45.558;10.070;2023-05-23T10:29:45;99571.84;;;26.87;41.82
63739;BME280;68816;45.558;10.070;2023-05-23T10:32:18;99595.97;;;27.05;40.95
63739;BME280;68816;45.558;10.070;2023-05-23T10:35:22;99600.53;;;27.34;40.59
63739;BME280;68816;45.558;10.070;2023-05-23T10:38:29;99607.78;;;27.19;40.74
63739;BME280;68816;45.558;10.070;2023-05-23T10:41:22;99603.81;;;26.96;40.52
63739;BME280;68816;45.558;10.070;2023-05-23T10:44:30;99596.06;;;27.21;39.83
63739;BME280;68816;45.558;10.070;2023-05-23T10:47:03;99588.09;;;27.51;40.00
63739;BME280;68816;45.558;10.070;2023-05-23T10:49:45;99553.31;;;27.42;41.35
63739;BME280;68816;45.558;10.070;2023-05-23T10:52:15;99591.59;;;27.20;41.43
63739;BME280;68816;45.558;10.070;2023-05-23T10:54:53;99549.00;;;27.20;40.66
63739;BME280;68816;45.558;10.070;2023-05-23T10:57:26;99573.03;;;27.50;39.77
63739;BME280;68816;45.558;10.070;2023-05-23T10:59:54;99572.72;;;27.39;38.21
63739;BME280;68816;45.558;10.070;2023-05-23T11:02:53;99581.66;;;27.66;38.62
63739;BME280;68816;45.558;10.070;2023-05-23T11:05:23;99583.75;;;27.69;36.82
63739;BME280;68816;45.558;10.070;2023-05-23T11:08:10;99576.16;;;27.73;39.16
63739;BME280;68816;45.558;10.070;2023-05-23T11:11:01;99578.56;;;28.14;40.94
63739;BME280;68816;45.558;10.070;2023-05-23T11:13:53;99579.81;;;28.01;39.64
63739;BME280;68816;45.558;10.070;2023-05-23T11:16:41;99577.06;;;28.05;38.60
63739;BME280;68816;45.558;10.070;2023-05-23T11:25:08;99582.72;;;28.33;36.96
63739;BME280;68816;45.558;10.070;2023-05-23T11:27:39;99560.25;;;28.28;38.10
63739;BME280;68816;45.558;10.070;2023-05-23T11:30:13;99570.03;;;28.14;38.69
63739;BME280;68816;45.558;10.070;2023-05-23T11:32:40;99535.09;;;28.14;38.13
63739;BME280;68816;45.558;10.070;2023-05-23T11:35:10;99567.41;;;28.53;38.00
63739;BME280;68816;45.558;10.070;2023-05-23T11:37:40;99565.09;;;28.43;37.19
63739;BME280;68816;45.558;10.070;2023-05-23T11:42:56;99555.59;;;28.07;39.04
63739;BME280;68816;45.558;10.070;2023-05-23T11:45:28;99562.63;;;28.26;39.74
63739;BME280;68816;45.558;10.070;2023-05-23T11:47:53;99566.75;;;27.85;40.06
63739;BME280;68816;45.558;10.070;2023-05-23T11:50:25;99546.84;;;28.28;42.84
63739;BME280;68816;45.558;10.070;2023-05-23T11:53:09;99556.66;;;28.31;38.83
63739;BME280;68816;45.558;10.070;2023-05-23T11:55:54;99546.91;;;28.00;38.46
63739;BME280;68816;45.558;10.070;2023-05-23T11:58:28;99545.91;;;28.55;39.79
63739;BME280;68816;45.558;10.070;2023-05-23T12:01:10;99542.53;;;28.50;39.96
63739;BME280;68816;45.558;10.070;2023-05-23T12:03:57;99555.66;;;28.54;38.14
63739;BME280;68816;45.558;10.070;2023-05-23T12:06:56;99545.28;;;28.78;37.61
63739;BME280;68816;45.558;10.070;2023-05-23T12:09:25;99545.75;;;28.80;38.88
63739;BME280;68816;45.558;10.070;2023-05-23T12:11:52;99540.94;;;28.84;39.30
63739;BME280;68816;45.558;10.070;2023-05-23T12:14:21;99538.63;;;28.89;38.33
63739;BME280;68816;45.558;10.070;2023-05-23T12:17:08;99541.72;;;28.65;37.99
63739;BME280;68816;45.558;10.070;2023-05-23T12:19:34;99538.03;;;28.80;36.99
63739;BME280;68816;45.558;10.070;2023-05-23T12:22:12;99532.03;;;28.85;36.43
63739;BME280;68816;45.558;10.070;2023-05-23T12:24:45;99527.59;;;29.04;36.98
63739;BME280;68816;45.558;10.070;2023-05-23T12:27:39;99536.16;;;29.23;34.52
63739;BME280;68816;45.558;10.070;2023-05-23T12:30:14;99541.00;;;29.03;34.05
63739;BME280;68816;45.558;10.070;2023-05-23T12:32:41;99553.69;;;28.90;35.32
63739;BME280;68816;45.558;10.070;2023-05-23T12:35:09;99539.88;;;29.08;32.61
63739;BME280;68816;45.558;10.070;2023-05-23T12:37:43;99537.31;;;29.03;31.74
63739;BME280;68816;45.558;10.070;2023-05-23T12:40:15;99543.25;;;28.78;31.54
63739;BME280;68816;45.558;10.070;2023-05-23T12:42:53;99533.75;;;29.25;30.17
63739;BME280;68816;45.558;10.070;2023-05-23T12:45:23;99507.88;;;29.14;33.30
63739;BME280;68816;45.558;10.070;2023-05-23T12:47:56;99528.78;;;29.57;33.91
63739;BME280;68816;45.558;10.070;2023-05-23T12:50:22;99534.00;;;29.74;33.14
63739;BME280;68816;45.558;10.070;2023-05-23T12:52:48;99525.97;;;29.79;33.12
63739;BME280;68816;45.558;10.070;2023-05-23T12:55:18;99530.03;;;29.59;31.18
63739;BME280;68816;45.558;10.070;2023-05-23T12:57:50;99508.88;;;29.79;31.39
63739;BME280;68816;45.558;10.070;2023-05-23T13:00:17;99498.66;;;29.78;30.64
63739;BME280;68816;45.558;10.070;2023-05-23T13:02:55;99524.00;;;30.03;32.01
63739;BME280;68816;45.558;10.070;2023-05-23T13:05:28;99472.00;;;29.90;31.08
63739;BME280;68816;45.558;10.070;2023-05-23T13:08:01;99510.59;;;30.26;30.58
63739;BME280;68816;45.558;10.070;2023-05-23T13:10:26;99512.22;;;30.27;30.38
63739;BME280;68816;45.558;10.070;2023-05-23T13:12:52;99519.22;;;29.88;30.49
63739;BME280;68816;45.558;10.070;2023-05-23T13:15:17;99504.19;;;30.33;31.08
63739;BME280;68816;45.558;10.070;2023-05-23T13:17:45;99510.31;;;30.35;30.04
63739;BME280;68816;45.558;10.070;2023-05-23T13:20:15;99514.50;;;30.41;29.99
63739;BME280;68816;45.558;10.070;2023-05-23T13:22:42;99484.91;;;30.03;30.51
63739;BME280;68816;45.558;10.070;2023-05-23T13:25:08;99490.44;;;30.65;33.92
63739;BME280;68816;45.558;10.070;2023-05-23T13:27:36;99513.94;;;30.54;30.83